Time;durP1;ratioP1;P1;durP2;ratioP2;P2;SDS_P1;SDS_P2;PMS_P1;PMS_P2;Temp;Humidity;BMP_temperature;BMP_pressure;BME280_temperature;BME280_humidity;BME280_pressure;Samples;Min_cycle;Max_cycle;Signal;HPM_P1;HPM_P2
2024/01/10 00:01:55;;;;;;;28.60;16.63;;;;;;;;;;5014495;28;20117;-78
2024/01/10 00:04:22;;;;;;;23.10;15.05;;;;;;;;;;5014738;28;20045;-78
2024/01/10 00:06:48;;;;;;;24.67;15.88;;;;;;;;;;4997265;28;20502;-78
2024/01/10 00:09:14;;;;;;;25.38;15.90;;;;;;;;;;5027336;28;20053;-78
2024/01/10 00:11:40;;;;;;;24.60;16.08;;;;;;;;;;5034036;28;20046;-78
2024/01/10 00:14:06;;;;;;;24.77;15.18;;;;;;;;;;5033943;28;20079;-78
2024/01/10 00:16:32;;;;;;;26.27;16.05;;;;;;;;;;5026481;28;20184;-78
2024/01/10 00:18:58;;;;;;;25.95;15.88;;;;;;;;;;5030828;28;20510;-78
2024/01/10 00:21:24;;;;;;;23.67;15.13;;;;;;;;;;5019375;28;20049;-78
2024/01/10 00:23:50;;;;;;;23.85;15.05;;;;;;;;;;5032527;28;20095;-78
2024/01/10 00:26:16;;;;;;;24.48;14.77;;;;;;;;;;5034994;28;20053;-78
2024/01/10 00:28:45;;;;;;;26.38;16.40;;;;;;;;;;5048885;28;20060;-78
2024/01/10 00:31:11;;;;;;;27.05;16.77;;;;;;;;;;5053098;28;20498;-78
2024/01/10 00:33:37;;;;;;;27.15;16.20;;;;;;;;;;5017506;28;20108;-77
2024/01/10 00:36:04;;;;;;;26.13;15.75;;;;;;;;;;5052093;28;20049;-77
2024/01/10 00:38:30;;;;;;;23.65;15.10;;;;;;;;;;5010714;28;20410;-78
2024/01/10 00:40:56;;;;;;;25.85;14.50;;;;;;;;;;5051417;28;20048;-78
2024/01/10 00:43:22;;;;;;;23.52;15.27;;;;;;;;;;5053622;28;20048;-78
2024/01/10 00:45:48;;;;;;;23.13;14.38;;;;;;;;;;5010118;28;20081;-78
2024/01/10 00:48:14;;;;;;;21.70;13.00;;;;;;;;;;5049322;28;20052;-78
2024/01/10 00:50:40;;;;;;;23.08;13.68;;;;;;;;;;5019610;28;20048;-78
2024/01/10 00:53:06;;;;;;;26.48;13.60;;;;;;;;;;5036882;28;20445;-79
2024/01/10 00:55:32;;;;;;;24.77;13.77;;;;;;;;;;5033333;28;20415;-78
2024/01/10 00:57:58;;;;;;;20.90;12.82;;;;;;;;;;5015425;28;20087;-76
2024/01/10 01:00:25;;;;;;;21.33;12.82;;;;;;;;;;5033687;28;20041;-77
2024/01/10 01:02:51;;;;;;;20.63;12.75;;;;;;;;;;5051673;28;20057;-77
2024/01/10 01:05:17;;;;;;;19.30;12.30;;;;;;;;;;5048623;28;20046;-77
2024/01/10 01:07:43;;;;;;;20.42;12.63;;;;;;;;;;5020276;28;20045;-77
2024/01/10 01:10:09;;;;;;;24.77;13.20;;;;;;;;;;5053059;28;20049;-77
2024/01/10 01:12:36;;;;;;;19.90;12.43;;;;;;;;;;5052882;28;20057;-79
2024/01/10 01:15:02;;;;;;;20.67;12.25;;;;;;;;;;5052978;28;20372;-77
2024/01/10 01:17:28;;;;;;;19.25;12.40;;;;;;;;;;5041298;28;20037;-76
2024/01/10 01:19:54;;;;;;;19.65;12.40;;;;;;;;;;5033112;28;20061;-76
2024/01/10 01:22:20;;;;;;;22.40;12.23;;;;;;;;;;5050647;28;20120;-77
2024/01/10 01:24:47;;;;;;;20.50;12.55;;;;;;;;;;5037358;28;20060;-77
2024/01/10 01:27:13;;;;;;;19.73;11.57;;;;;;;;;;5036274;28;20044;-77
2024/01/10 01:29:39;;;;;;;19.02;11.15;;;;;;;;;;5040934;28;20059;-77
2024/01/10 01:32:05;;;;;;;20.55;12.00;;;;;;;;;;5036339;28;20040;-76
2024/01/10 01:34:31;;;;;;;19.33;12.43;;;;;;;;;;5050688;28;20048;-77
2024/01/10 01:36:57;;;;;;;17.08;10.20;;;;;;;;;;5043806;28;20044;-77
2024/01/10 01:39:23;;;;;;;18.70;10.85;;;;;;;;;;5046101;28;20041;-77
2024/01/10 01:41:49;;;;;;;18.88;11.13;;;;;;;;;;5021958;28;20076;-77
2024/01/10 01:44:15;;;;;;;19.77;11.82;;;;;;;;;;5034870;28;20049;-78
2024/01/10 01:46:41;;;;;;;20.58;11.20;;;;;;;;;;5047617;28;20095;-77
2024/01/10 01:49:08;;;;;;;19.90;12.32;;;;;;;;;;5036439;28;20052;-77
2024/01/10 01:51:36;;;;;;;19.23;10.18;;;;;;;;;;5036866;28;20410;-77
2024/01/10 01:54:04;;;;;;;18.15;11.70;;;;;;;;;;5029659;28;20061;-78
2024/01/10 01:56:30;;;;;;;20.58;11.75;;;;;;;;;;5048328;28;20073;-78
2024/01/10 01:58:56;;;;;;;20.05;12.27;;;;;;;;;;5039649;28;20033;-78
2024/01/10 02:01:22;;;;;;;21.38;13.85;;;;;;;;;;5043620;28;20080;-77
2024/01/10 02:03:48;;;;;;;21.75;13.20;;;;;;;;;;5050384;28;20049;-78
2024/01/10 02:06:14;;;;;;;22.58;12.85;;;;;;;;;;5056782;28;20053;-77
2024/01/10 02:08:41;;;;;;;20.90;14.02;;;;;;;;;;5042279;28;20052;-77
2024/01/10 02:11:07;;;;;;;21.70;13.07;;;;;;;;;;5048192;28;20087;-78
2024/01/10 02:13:33;;;;;;;23.27;13.98;;;;;;;;;;5042958;28;20507;-78
2024/01/10 02:16:00;;;;;;;22.70;14.20;;;;;;;;;;5010171;28;20061;-77
2024/01/10 02:18:26;;;;;;;25.13;15.05;;;;;;;;;;5048752;28;20068;-77
2024/01/10 02:20:52;;;;;;;22.83;14.02;;;;;;;;;;5050323;28;20534;-77
2024/01/10 02:23:18;;;;;;;23.92;15.07;;;;;;;;;;5040357;28;20045;-77
2024/01/10 02:25:44;;;;;;;24.77;14.57;;;;;;;;;;5045879;28;20482;-78
2024/01/10 02:28:11;;;;;;;25.95;14.52;;;;;;;;;;5044194;28;20065;-77
2024/01/10 02:30:37;;;;;;;22.85;13.27;;;;;;;;;;5023779;28;20092;-77
2024/01/10 02:33:04;;;;;;;21.83;13.75;;;;;;;;;;5035806;28;20122;-77
2024/01/10 02:35:32;;;;;;;23.80;14.45;;;;;;;;;;5035746;28;20060;-78
2024/01/10 02:37:58;;;;;;;27.25;15.38;;;;;;;;;;5035542;28;20049;-77
2024/01/10 02:40:25;;;;;;;22.02;13.98;;;;;;;;;;5035530;28;20037;-78
2024/01/10 02:42:51;;;;;;;22.65;14.48;;;;;;;;;;5036307;28;20128;-78
2024/01/10 02:45:17;;;;;;;26.00;14.52;;;;;;;;;;5037107;28;20076;-78
2024/01/10 02:47:43;;;;;;;23.38;15.35;;;;;;;;;;5046023;28;20083;-78
2024/01/10 02:50:10;;;;;;;24.00;14.27;;;;;;;;;;5042936;28;20048;-77
2024/01/10 02:52:36;;;;;;;23.85;13.95;;;;;;;;;;5040285;28;20052;-78
2024/01/10 02:55:02;;;;;;;24.05;13.85;;;;;;;;;;5025655;28;20046;-78
2024/01/10 02:57:28;;;;;;;25.70;14.77;;;;;;;;;;5041413;28;20045;-78
2024/01/10 02:59:54;;;;;;;24.55;15.40;;;;;;;;;;5032644;28;20103;-78
2024/01/10 03:02:20;;;;;;;23.95;14.85;;;;;;;;;;5038445;28;20068;-77
2024/01/10 03:04:46;;;;;;;24.90;16.42;;;;;;;;;;5053386;28;20073;-78
2024/01/10 03:07:12;;;;;;;24.75;14.63;;;;;;;;;;5054880;28;20041;-77
2024/01/10 03:09:38;;;;;;;26.05;15.85;;;;;;;;;;5044328;28;20053;-76
2024/01/10 03:12:04;;;;;;;26.35;15.85;;;;;;;;;;5038136;28;20501;-77
2024/01/10 03:14:31;;;;;;;25.33;15.40;;;;;;;;;;5039586;28;20057;-77
2024/01/10 03:16:57;;;;;;;27.17;15.85;;;;;;;;;;5050608;28;20041;-77
2024/01/10 03:19:23;;;;;;;24.05;15.32;;;;;;;;;;5017080;28;20045;-77
2024/01/10 03:21:49;;;;;;;27.45;16.48;;;;;;;;;;5046185;28;20072;-77
2024/01/10 03:24:15;;;;;;;29.60;16.80;;;;;;;;;;5038999;28;20081;-78
2024/01/10 03:26:41;;;;;;;26.92;15.85;;;;;;;;;;5044512;28;20491;-77
2024/01/10 03:29:07;;;;;;;26.65;15.93;;;;;;;;;;5054810;28;20437;-77
2024/01/10 03:31:33;;;;;;;29.02;15.82;;;;;;;;;;5032309;28;20080;-77
2024/01/10 03:33:59;;;;;;;28.45;16.30;;;;;;;;;;5040445;28;20053;-77
2024/01/10 03:36:26;;;;;;;25.27;14.80;;;;;;;;;;5036977;28;20044;-77
2024/01/10 03:38:52;;;;;;;28.70;16.23;;;;;;;;;;5039261;28;20081;-77
2024/01/10 03:41:19;;;;;;;28.50;16.85;;;;;;;;;;5034253;28;20058;-77
2024/01/10 03:43:45;;;;;;;24.30;14.70;;;;;;;;;;5042509;28;20045;-77
2024/01/10 03:46:11;;;;;;;27.25;15.93;;;;;;;;;;5045820;28;20048;-76
2024/01/10 03:48:40;;;;;;;26.75;16.58;;;;;;;;;;5034815;28;20041;-77
2024/01/10 03:51:06;;;;;;;25.52;15.80;;;;;;;;;;5021173;28;20065;-77
2024/01/10 03:53:32;;;;;;;28.17;15.60;;;;;;;;;;5041243;28;20136;-77
2024/01/10 03:55:58;;;;;;;26.08;15.95;;;;;;;;;;5033404;28;20407;-77
2024/01/10 03:58:25;;;;;;;25.67;16.55;;;;;;;;;;5016227;28;20047;-77
2024/01/10 04:00:51;;;;;;;27.25;17.23;;;;;;;;;;5035628;28;20060;-77
2024/01/10 04:03:17;;;;;;;26.35;15.65;;;;;;;;;;5028940;28;20518;-78
2024/01/10 04:05:43;;;;;;;28.42;16.02;;;;;;;;;;5038021;28;20176;-77
2024/01/10 04:08:09;;;;;;;25.30;15.15;;;;;;;;;;5052095;28;20445;-77
2024/01/10 04:10:35;;;;;;;25.63;16.30;;;;;;;;;;5022528;28;20052;-77
2024/01/10 04:13:01;;;;;;;27.02;17.80;;;;;;;;;;5047475;28;20053;-77
2024/01/10 04:15:28;;;;;;;28.25;16.63;;;;;;;;;;5034793;28;20419;-77
2024/01/10 04:17:54;;;;;;;27.23;17.33;;;;;;;;;;5048474;28;20494;-76
2024/01/10 04:20:20;;;;;;;27.23;17.25;;;;;;;;;;5042358;28;20045;-76
2024/01/10 04:22:46;;;;;;;29.02;17.38;;;;;;;;;;5040624;28;20083;-76
2024/01/10 04:25:12;;;;;;;28.10;16.35;;;;;;;;;;5043315;28;20045;-77
2024/01/10 04:27:38;;;;;;;27.08;17.20;;;;;;;;;;5033499;28;20526;-76
2024/01/10 04:30:05;;;;;;;28.80;18.13;;;;;;;;;;5048033;28;20041;-76
2024/01/10 04:32:31;;;;;;;27.70;17.73;;;;;;;;;;5047677;28;20045;-77
2024/01/10 04:34:57;;;;;;;26.80;17.08;;;;;;;;;;5051887;28;20048;-77
2024/01/10 04:37:23;;;;;;;32.95;18.17;;;;;;;;;;5053588;28;20083;-77
2024/01/10 04:39:49;;;;;;;27.83;16.85;;;;;;;;;;5052944;28;20131;-77
2024/01/10 04:42:15;;;;;;;28.38;17.73;;;;;;;;;;5036533;28;20045;-77
2024/01/10 04:44:41;;;;;;;31.52;19.13;;;;;;;;;;5033054;28;20034;-77
2024/01/10 04:47:07;;;;;;;29.83;18.27;;;;;;;;;;5044900;28;20494;-77
2024/01/10 04:49:34;;;;;;;31.95;19.58;;;;;;;;;;5042390;28;20041;-78
2024/01/10 04:52:00;;;;;;;29.95;18.80;;;;;;;;;;5034811;28;20056;-78
2024/01/10 04:54:26;;;;;;;29.90;17.75;;;;;;;;;;5032503;28;20041;-77
2024/01/10 04:56:52;;;;;;;31.52;18.77;;;;;;;;;;5037128;28;20487;-77
2024/01/10 04:59:18;;;;;;;30.35;19.33;;;;;;;;;;5035836;28;20055;-77
2024/01/10 05:01:44;;;;;;;31.77;19.15;;;;;;;;;;5052265;28;20045;-77
2024/01/10 05:04:10;;;;;;;29.92;17.38;;;;;;;;;;5000881;28;20092;-78
2024/01/10 05:06:36;;;;;;;30.92;19.20;;;;;;;;;;5025487;28;20435;-77
2024/01/10 05:09:04;;;;;;;32.55;19.08;;;;;;;;;;5036833;28;20056;-77
2024/01/10 05:11:30;;;;;;;24.42;14.82;;;;;;;;;;5025216;28;20045;-77
2024/01/10 05:13:57;;;;;;;35.92;20.85;;;;;;;;;;5032332;28;20411;-77
2024/01/10 05:16:24;;;;;;;34.33;20.73;;;;;;;;;;5032630;28;20045;-76
2024/01/10 05:18:50;;;;;;;34.25;21.52;;;;;;;;;;5026060;28;20707;-77
2024/01/10 05:21:16;;;;;;;33.13;21.33;;;;;;;;;;5043353;28;20416;-77
2024/01/10 05:23:42;;;;;;;32.58;18.45;;;;;;;;;;5030295;28;20120;-76
2024/01/10 05:26:08;;;;;;;29.95;18.55;;;;;;;;;;5046069;28;20046;-77
2024/01/10 05:28:34;;;;;;;33.55;19.45;;;;;;;;;;5054454;28;20045;-77
2024/01/10 05:31:00;;;;;;;33.70;20.63;;;;;;;;;;5052145;28;20491;-77
2024/01/10 05:33:26;;;;;;;32.88;22.02;;;;;;;;;;5038280;28;20445;-77
2024/01/10 05:35:52;;;;;;;29.77;19.10;;;;;;;;;;5042668;28;20053;-76
2024/01/10 05:38:18;;;;;;;35.05;21.63;;;;;;;;;;5056292;28;20067;-77
2024/01/10 05:40:45;;;;;;;34.40;20.85;;;;;;;;;;5049826;28;20040;-77
2024/01/10 05:43:11;;;;;;;33.25;19.60;;;;;;;;;;5053683;28;20045;-77
2024/01/10 05:45:37;;;;;;;30.85;17.70;;;;;;;;;;5050591;28;20515;-77
2024/01/10 05:48:03;;;;;;;30.13;20.63;;;;;;;;;;5034155;28;20045;-77
2024/01/10 05:50:30;;;;;;;30.45;20.13;;;;;;;;;;5046439;28;20120;-77
2024/01/10 05:52:56;;;;;;;31.60;20.38;;;;;;;;;;5023104;28;20046;-77
2024/01/10 05:55:23;;;;;;;35.97;23.13;;;;;;;;;;5035620;28;20475;-77
2024/01/10 05:57:49;;;;;;;33.60;21.00;;;;;;;;;;5029695;28;20052;-76
2024/01/10 06:00:16;;;;;;;30.55;19.65;;;;;;;;;;5025252;28;20053;-77
2024/01/10 06:02:42;;;;;;;32.10;21.13;;;;;;;;;;5049468;28;20069;-76
2024/01/10 06:05:09;;;;;;;30.23;19.00;;;;;;;;;;5035139;28;20038;-77
2024/01/10 06:07:36;;;;;;;32.17;20.83;;;;;;;;;;5036375;28;20047;-76
2024/01/10 06:10:02;;;;;;;29.42;18.48;;;;;;;;;;5041557;28;20564;-77
2024/01/10 06:12:28;;;;;;;29.80;19.25;;;;;;;;;;5037441;28;20091;-77
2024/01/10 06:14:54;;;;;;;31.35;18.33;;;;;;;;;;5043134;28;20063;-77
2024/01/10 06:17:21;;;;;;;31.90;19.08;;;;;;;;;;5036873;28;20045;-76
2024/01/10 06:19:47;;;;;;;32.13;19.98;;;;;;;;;;5038890;28;20048;-77
2024/01/10 06:22:13;;;;;;;33.17;21.48;;;;;;;;;;5055808;28;20052;-77
2024/01/10 06:24:40;;;;;;;35.25;22.58;;;;;;;;;;5019750;28;20042;-77
2024/01/10 06:27:08;;;;;;;34.45;21.13;;;;;;;;;;5025579;28;20053;-78
2024/01/10 06:29:34;;;;;;;35.70;23.08;;;;;;;;;;5047380;28;20041;-77
2024/01/10 06:32:01;;;;;;;35.60;21.35;;;;;;;;;;5045126;28;20051;-78
2024/01/10 06:34:27;;;;;;;33.38;21.50;;;;;;;;;;5049925;28;20040;-77
2024/01/10 06:36:53;;;;;;;33.15;20.23;;;;;;;;;;5048596;28;20045;-77
2024/01/10 06:39:19;;;;;;;36.13;20.83;;;;;;;;;;5037987;28;20050;-77
2024/01/10 06:41:48;;;;;;;34.13;21.58;;;;;;;;;;5034555;28;20119;-77
2024/01/10 06:44:17;;;;;;;32.05;20.55;;;;;;;;;;5029854;28;20091;-77
2024/01/10 06:46:43;;;;;;;33.65;21.55;;;;;;;;;;5016236;28;20049;-76
2024/01/10 06:49:10;;;;;;;30.42;19.65;;;;;;;;;;5036189;28;20336;-76
2024/01/10 06:51:36;;;;;;;35.92;21.35;;;;;;;;;;5015669;28;20045;-77
2024/01/10 06:54:05;;;;;;;30.67;18.48;;;;;;;;;;5019142;28;20499;-77
2024/01/10 06:56:34;;;;;;;30.73;20.02;;;;;;;;;;5033792;28;20046;-77
2024/01/10 06:59:01;;;;;;;30.58;19.80;;;;;;;;;;5032759;28;20465;-77
2024/01/10 07:01:27;;;;;;;31.10;20.00;;;;;;;;;;5033675;28;20049;-78
2024/01/10 07:03:54;;;;;;;32.17;21.77;;;;;;;;;;5034587;28;20041;-77
2024/01/10 07:06:21;;;;;;;33.25;21.60;;;;;;;;;;5049157;28;20045;-77
2024/01/10 07:08:49;;;;;;;28.48;16.55;;;;;;;;;;5017971;28;20037;-77
2024/01/10 07:11:15;;;;;;;33.92;21.10;;;;;;;;;;4999406;28;20054;-77
2024/01/10 07:13:41;;;;;;;34.13;21.95;;;;;;;;;;5051765;28;20502;-77
2024/01/10 07:16:08;;;;;;;30.63;18.52;;;;;;;;;;5043952;28;20480;-77
2024/01/10 07:18:34;;;;;;;34.50;22.08;;;;;;;;;;5035388;28;20056;-77
2024/01/10 07:21:00;;;;;;;31.85;20.38;;;;;;;;;;5014247;28;20049;-77
2024/01/10 07:23:27;;;;;;;32.25;20.83;;;;;;;;;;5015284;28;20053;-77
2024/01/10 07:25:53;;;;;;;34.05;22.35;;;;;;;;;;5031839;28;20040;-76
2024/01/10 07:28:19;;;;;;;32.42;20.67;;;;;;;;;;5036690;28;20045;-78
2024/01/10 07:30:45;;;;;;;31.60;18.80;;;;;;;;;;5053909;28;20049;-76
2024/01/10 07:33:11;;;;;;;32.85;21.17;;;;;;;;;;5054092;28;20041;-77
2024/01/10 07:35:38;;;;;;;31.65;19.58;;;;;;;;;;5054067;28;20596;-77
2024/01/10 07:38:07;;;;;;;32.42;20.85;;;;;;;;;;5026227;28;20364;-78
2024/01/10 07:40:34;;;;;;;32.28;21.40;;;;;;;;;;5018215;28;20049;-77
2024/01/10 07:43:00;;;;;;;29.67;16.92;;;;;;;;;;5053401;28;20045;-77
2024/01/10 07:45:26;;;;;;;32.28;21.70;;;;;;;;;;5042116;28;20054;-77
2024/01/10 07:47:52;;;;;;;31.25;20.13;;;;;;;;;;5032996;28;20506;-77
2024/01/10 07:50:19;;;;;;;31.52;19.80;;;;;;;;;;5015654;28;20092;-78
2024/01/10 07:52:46;;;;;;;32.67;20.05;;;;;;;;;;5032827;28;20132;-78
2024/01/10 07:55:12;;;;;;;30.80;20.55;;;;;;;;;;5015621;28;20041;-77
2024/01/10 07:57:38;;;;;;;31.58;20.67;;;;;;;;;;4999521;28;20053;-77
2024/01/10 08:00:05;;;;;;;31.52;19.92;;;;;;;;;;5029329;28;20056;-77
2024/01/10 08:02:34;;;;;;;34.08;19.95;;;;;;;;;;5030394;28;20419;-78
2024/01/10 08:05:01;;;;;;;27.83;19.02;;;;;;;;;;5033481;28;20064;-77
2024/01/10 08:07:27;;;;;;;30.08;19.75;;;;;;;;;;5015846;28;20057;-77
2024/01/10 08:09:53;;;;;;;29.77;18.77;;;;;;;;;;5032226;28;20056;-77
2024/01/10 08:12:19;;;;;;;29.88;18.60;;;;;;;;;;5032864;28;20049;-76
2024/01/10 08:14:46;;;;;;;31.70;21.75;;;;;;;;;;5032395;28;20061;-77
2024/01/10 08:17:12;;;;;;;31.73;18.98;;;;;;;;;;5032954;28;20136;-77
2024/01/10 08:19:39;;;;;;;32.50;18.95;;;;;;;;;;5033583;28;20121;-77
2024/01/10 08:22:06;;;;;;;25.13;15.15;;;;;;;;;;5033442;28;20048;-77
2024/01/10 08:24:32;;;;;;;29.55;20.13;;;;;;;;;;5033557;28;20057;-77
2024/01/10 08:26:58;;;;;;;29.67;20.42;;;;;;;;;;5015980;28;20451;-78
2024/01/10 08:29:30;;;;;;;36.53;22.60;;;;;;;;;;5033056;28;20037;-77
2024/01/10 08:31:56;;;;;;;33.92;20.60;;;;;;;;;;5033241;28;20037;-76
2024/01/10 08:34:22;;;;;;;35.00;22.00;;;;;;;;;;5033526;28;20112;-77
2024/01/10 08:36:51;;;;;;;30.38;20.02;;;;;;;;;;5032560;28;20048;-77
2024/01/10 08:39:18;;;;;;;27.33;17.65;;;;;;;;;;5033442;28;20057;-77
2024/01/10 08:41:44;;;;;;;29.55;19.42;;;;;;;;;;5032880;28;20045;-78
2024/01/10 08:44:10;;;;;;;31.75;20.40;;;;;;;;;;5032696;28;20159;-76
2024/01/10 08:46:36;;;;;;;29.52;17.30;;;;;;;;;;5031522;28;20052;-78
2024/01/10 08:49:02;;;;;;;32.63;19.90;;;;;;;;;;5016527;28;20060;-77
2024/01/10 08:51:28;;;;;;;30.50;17.63;;;;;;;;;;5033026;28;20057;-77
2024/01/10 08:53:56;;;;;;;31.15;18.95;;;;;;;;;;5032763;28;20045;-76
2024/01/10 08:56:22;;;;;;;31.33;18.63;;;;;;;;;;5032649;28;20176;-77
2024/01/10 08:58:48;;;;;;;27.38;15.98;;;;;;;;;;5047022;28;20487;-78
2024/01/10 09:01:14;;;;;;;28.67;17.80;;;;;;;;;;5039422;28;20046;-77
2024/01/10 09:03:41;;;;;;;27.58;15.93;;;;;;;;;;5052734;28;20041;-77
2024/01/10 09:06:09;;;;;;;33.38;18.17;;;;;;;;;;5018106;28;20045;-77
2024/01/10 09:08:36;;;;;;;30.77;18.25;;;;;;;;;;5048405;28;20056;-78
2024/01/10 09:11:03;;;;;;;31.73;18.10;;;;;;;;;;5052952;28;20067;-77
2024/01/10 09:13:29;;;;;;;30.48;18.65;;;;;;;;;;5052591;28;20056;-77
2024/01/10 09:15:55;;;;;;;28.65;17.98;;;;;;;;;;5052687;28;20429;-78
2024/01/10 09:18:21;;;;;;;29.73;17.52;;;;;;;;;;5034190;28;20404;-78
2024/01/10 09:20:50;;;;;;;27.35;16.83;;;;;;;;;;5022371;28;20046;-78
2024/01/10 09:23:16;;;;;;;28.23;16.83;;;;;;;;;;5030682;28;20057;-77
2024/01/10 09:25:43;;;;;;;28.67;17.60;;;;;;;;;;5033354;28;20067;-77
2024/01/10 09:28:09;;;;;;;28.80;16.63;;;;;;;;;;5013732;28;20050;-77
2024/01/10 09:30:35;;;;;;;31.02;17.48;;;;;;;;;;5031848;28;20057;-77
2024/01/10 09:33:01;;;;;;;28.10;15.23;;;;;;;;;;5013861;28;20037;-77
2024/01/10 09:35:27;;;;;;;28.98;15.52;;;;;;;;;;5031751;28;20046;-77
2024/01/10 09:37:56;;;;;;;28.90;16.38;;;;;;;;;;5035015;28;20041;-77
2024/01/10 09:40:25;;;;;;;25.70;14.50;;;;;;;;;;5035541;28;20044;-78
2024/01/10 09:42:51;;;;;;;31.45;16.75;;;;;;;;;;5027299;28;20053;-78
2024/01/10 09:45:19;;;;;;;30.02;17.27;;;;;;;;;;5028652;28;20057;-76
2024/01/10 09:47:49;;;;;;;28.90;15.65;;;;;;;;;;5029976;28;20041;-77
2024/01/10 09:50:15;;;;;;;30.45;17.70;;;;;;;;;;5031097;28;20041;-77
2024/01/10 09:52:44;;;;;;;30.10;17.15;;;;;;;;;;5032028;28;20380;-77
2024/01/10 09:55:12;;;;;;;29.25;15.75;;;;;;;;;;5027518;28;20080;-77
2024/01/10 09:57:38;;;;;;;26.05;14.93;;;;;;;;;;5027851;28;21985;-77
2024/01/10 10:00:04;;;;;;;30.90;15.93;;;;;;;;;;5030920;28;20072;-77
2024/01/10 10:02:32;;;;;;;28.98;14.63;;;;;;;;;;5023598;28;20083;-77
2024/01/10 10:05:08;;;;;;;26.45;15.73;;;;;;;;;;4998331;28;20295;-77
2024/01/10 10:07:57;;;;;;;28.92;15.93;;;;;;;;;;5034100;28;20471;-77
2024/01/10 10:10:23;;;;;;;24.63;13.43;;;;;;;;;;5035440;28;20054;-76
2024/01/10 10:12:53;;;;;;;27.77;14.95;;;;;;;;;;5045299;28;20124;-76
2024/01/10 10:15:22;;;;;;;23.85;13.60;;;;;;;;;;5040346;28;20497;-76
2024/01/10 10:17:49;;;;;;;25.60;14.20;;;;;;;;;;5048289;28;20041;-76
2024/01/10 10:20:22;;;;;;;25.42;13.50;;;;;;;;;;5052529;28;20542;-77
2024/01/10 10:22:59;;;;;;;24.42;12.38;;;;;;;;;;5018885;28;20060;-77
2024/01/10 10:25:27;;;;;;;31.63;15.13;;;;;;;;;;5035238;28;20091;-77
2024/01/10 10:27:53;;;;;;;35.42;16.08;;;;;;;;;;5017850;28;20080;-77
2024/01/10 10:30:19;;;;;;;37.03;18.33;;;;;;;;;;5035051;28;20057;-77
2024/01/10 10:32:46;;;;;;;22.13;12.85;;;;;;;;;;5035298;28;20365;-77
2024/01/10 10:35:12;;;;;;;24.30;13.48;;;;;;;;;;5034875;28;20137;-77
2024/01/10 10:37:38;;;;;;;21.08;13.15;;;;;;;;;;5034597;28;20045;-77
2024/01/10 10:40:04;;;;;;;24.60;13.20;;;;;;;;;;5034933;28;20407;-77
2024/01/10 10:42:31;;;;;;;26.58;14.07;;;;;;;;;;5033678;28;20049;-77
2024/01/10 10:45:02;;;;;;;26.42;13.60;;;;;;;;;;5034668;28;20375;-77
2024/01/10 10:47:32;;;;;;;23.65;12.05;;;;;;;;;;5034884;28;20113;-77
2024/01/10 10:49:59;;;;;;;24.48;14.18;;;;;;;;;;5034763;28;20045;-77
2024/01/10 10:52:26;;;;;;;27.05;14.82;;;;;;;;;;5016023;28;20060;-77
2024/01/10 10:54:55;;;;;;;22.73;11.95;;;;;;;;;;5034728;28;20344;-77
2024/01/10 10:57:21;;;;;;;22.50;12.93;;;;;;;;;;5016592;28;20041;-77
2024/01/10 10:59:48;;;;;;;26.98;12.55;;;;;;;;;;5034020;28;20037;-77
2024/01/10 11:02:20;;;;;;;25.17;13.38;;;;;;;;;;5033931;28;20046;-77
2024/01/10 11:04:46;;;;;;;24.33;14.30;;;;;;;;;;5034970;28;20053;-77
2024/01/10 11:07:12;;;;;;;23.00;13.23;;;;;;;;;;5034578;28;20053;-77
2024/01/10 11:09:40;;;;;;;28.85;14.43;;;;;;;;;;5033888;28;20049;-77
2024/01/10 11:12:23;;;;;;;25.45;12.00;;;;;;;;;;5034130;28;20053;-76
2024/01/10 11:15:09;;;;;;;24.65;13.50;;;;;;;;;;5031230;28;20046;-77
2024/01/10 11:17:41;;;;;;;19.92;10.70;;;;;;;;;;5032649;28;20522;-77
2024/01/10 11:20:11;;;;;;;21.00;11.70;;;;;;;;;;5033127;28;20060;-77
2024/01/10 11:22:53;;;;;;;23.52;12.88;;;;;;;;;;5017736;28;20054;-77
2024/01/10 11:25:19;;;;;;;20.38;9.75;;;;;;;;;;5023979;28;20050;-77
2024/01/10 11:27:47;;;;;;;20.27;11.63;;;;;;;;;;5032035;28;20111;-77
2024/01/10 11:30:13;;;;;;;21.95;11.52;;;;;;;;;;5033762;28;20505;-77
2024/01/10 11:32:39;;;;;;;20.00;10.35;;;;;;;;;;5015385;28;20479;-77
2024/01/10 11:35:11;;;;;;;20.98;10.95;;;;;;;;;;5033756;28;20064;-77
2024/01/10 11:37:43;;;;;;;21.48;11.77;;;;;;;;;;5032986;28;20434;-77
2024/01/10 11:40:10;;;;;;;19.67;10.75;;;;;;;;;;5027781;28;20054;-77
2024/01/10 11:42:43;;;;;;;18.00;9.07;;;;;;;;;;5033501;28;20041;-76
2024/01/10 11:45:09;;;;;;;17.60;9.70;;;;;;;;;;5014820;28;20041;-77
2024/01/10 11:47:38;;;;;;;16.17;8.15;;;;;;;;;;5033558;28;20147;-76
2024/01/10 11:50:07;;;;;;;20.50;10.85;;;;;;;;;;5015749;28;20045;-77
2024/01/10 11:52:34;;;;;;;19.10;10.02;;;;;;;;;;5035295;28;20391;-77
2024/01/10 11:55:00;;;;;;;17.52;9.52;;;;;;;;;;5023750;28;20037;-76
2024/01/10 11:57:29;;;;;;;18.52;10.55;;;;;;;;;;5036928;28;20171;-76
2024/01/10 11:59:55;;;;;;;17.88;8.45;;;;;;;;;;5019631;28;20064;-76
2024/01/10 12:02:23;;;;;;;19.80;10.50;;;;;;;;;;5022350;28;20049;-76
2024/01/10 12:04:50;;;;;;;18.40;9.50;;;;;;;;;;5014759;28;20053;-76
2024/01/10 12:07:17;;;;;;;16.58;8.68;;;;;;;;;;5032650;28;20090;-76
2024/01/10 12:09:43;;;;;;;15.82;8.52;;;;;;;;;;5031996;28;20052;-76
2024/01/10 12:12:12;;;;;;;16.48;9.85;;;;;;;;;;5013841;28;20061;-76
2024/01/10 12:14:38;;;;;;;17.63;9.80;;;;;;;;;;5026456;28;20137;-76
2024/01/10 12:17:06;;;;;;;16.08;8.32;;;;;;;;;;5022578;28;20033;-76
2024/01/10 12:19:32;;;;;;;17.45;9.18;;;;;;;;;;5016710;28;20395;-76
2024/01/10 12:21:58;;;;;;;17.58;9.15;;;;;;;;;;5032856;28;20129;-76
2024/01/10 12:24:28;;;;;;;19.08;9.73;;;;;;;;;;5025839;28;20050;-76
2024/01/10 12:26:56;;;;;;;16.20;9.13;;;;;;;;;;5025722;28;20036;-76
2024/01/10 12:29:22;;;;;;;16.08;8.93;;;;;;;;;;5027408;28;20081;-76
2024/01/10 12:31:49;;;;;;;17.75;9.32;;;;;;;;;;5032164;28;20041;-76
2024/01/10 12:34:15;;;;;;;16.10;8.68;;;;;;;;;;5032249;28;20467;-76
2024/01/10 12:36:42;;;;;;;18.73;8.98;;;;;;;;;;5032353;28;20480;-76
2024/01/10 12:39:08;;;;;;;17.58;9.98;;;;;;;;;;5035714;28;20052;-76
2024/01/10 12:41:35;;;;;;;16.70;9.32;;;;;;;;;;5044446;28;20045;-76
2024/01/10 12:44:06;;;;;;;17.73;9.27;;;;;;;;;;5033339;28;20038;-77
2024/01/10 12:46:32;;;;;;;16.52;7.47;;;;;;;;;;5032238;28;20081;-76
2024/01/10 12:49:00;;;;;;;17.35;9.30;;;;;;;;;;5031685;28;20555;-76
2024/01/10 12:51:29;;;;;;;27.88;11.93;;;;;;;;;;5015841;28;20061;-76
2024/01/10 12:53:56;;;;;;;20.27;10.20;;;;;;;;;;5016666;28;20081;-76
2024/01/10 12:56:22;;;;;;;16.40;8.52;;;;;;;;;;5034474;28;20462;-77
2024/01/10 12:58:48;;;;;;;17.13;9.40;;;;;;;;;;5032308;28;20045;-77
2024/01/10 13:01:15;;;;;;;15.77;9.13;;;;;;;;;;5031445;28;20429;-76
2024/01/10 13:03:42;;;;;;;17.05;9.18;;;;;;;;;;5032739;28;20085;-76
2024/01/10 13:06:09;;;;;;;15.88;9.35;;;;;;;;;;5028519;28;20406;-76
2024/01/10 13:08:35;;;;;;;13.15;7.30;;;;;;;;;;5034038;28;20143;-77
2024/01/10 13:11:04;;;;;;;13.27;7.43;;;;;;;;;;5031418;28;20407;-76
2024/01/10 13:13:30;;;;;;;16.98;8.90;;;;;;;;;;5014356;28;20160;-76
2024/01/10 13:15:56;;;;;;;17.00;8.18;;;;;;;;;;5031432;28;20057;-77
2024/01/10 13:18:22;;;;;;;17.92;7.82;;;;;;;;;;5029057;28;20045;-77
2024/01/10 13:20:48;;;;;;;15.63;6.65;;;;;;;;;;5031219;28;20050;-77
2024/01/10 13:23:15;;;;;;;16.73;8.25;;;;;;;;;;5030778;28;20037;-77
2024/01/10 13:25:41;;;;;;;14.95;8.00;;;;;;;;;;5031528;28;20372;-77
2024/01/10 13:28:07;;;;;;;17.92;9.20;;;;;;;;;;5030326;28;20540;-77
2024/01/10 13:30:33;;;;;;;16.90;9.48;;;;;;;;;;5031968;28;20484;-76
2024/01/10 13:32:59;;;;;;;16.08;9.15;;;;;;;;;;5033371;28;20092;-77
2024/01/10 13:35:25;;;;;;;16.50;9.43;;;;;;;;;;5025057;28;20049;-77
2024/01/10 13:37:52;;;;;;;16.17;8.45;;;;;;;;;;5025650;28;20056;-78
2024/01/10 13:40:23;;;;;;;17.92;8.40;;;;;;;;;;5032779;28;20103;-78
2024/01/10 13:42:50;;;;;;;19.40;9.75;;;;;;;;;;5035833;28;20136;-77
2024/01/10 13:45:17;;;;;;;15.82;8.20;;;;;;;;;;5031772;28;20124;-77
2024/01/10 13:47:43;;;;;;;17.52;9.77;;;;;;;;;;5026155;28;20046;-77
2024/01/10 13:50:09;;;;;;;18.10;10.23;;;;;;;;;;5018361;28;20492;-77
2024/01/10 13:52:36;;;;;;;22.83;11.50;;;;;;;;;;5035057;28;20113;-77
2024/01/10 13:55:06;;;;;;;15.02;8.30;;;;;;;;;;5035887;28;20103;-77
2024/01/10 13:57:32;;;;;;;15.82;8.85;;;;;;;;;;5027358;28;20133;-77
2024/01/10 13:59:59;;;;;;;15.23;8.30;;;;;;;;;;5031594;28;20041;-77
2024/01/10 14:02:25;;;;;;;15.80;9.13;;;;;;;;;;5036310;28;20045;-77
2024/01/10 14:04:51;;;;;;;18.52;8.95;;;;;;;;;;5035820;28;20103;-77
2024/01/10 14:07:17;;;;;;;17.95;8.77;;;;;;;;;;5044172;28;20049;-77
2024/01/10 14:09:45;;;;;;;17.35;9.80;;;;;;;;;;5041119;28;20049;-77
2024/01/10 14:12:12;;;;;;;14.95;9.13;;;;;;;;;;5035401;28;20049;-77
2024/01/10 14:14:38;;;;;;;15.68;8.13;;;;;;;;;;5033589;28;20057;-77
2024/01/10 14:17:04;;;;;;;16.60;8.90;;;;;;;;;;5010385;28;20045;-77